SJS weather

Big Sandy Regional Airport
Prestonsburg, Kentucky, United States

Public forecast

Using degrees Fahrenheit for public forecast. Weather courtesy of forecast.io.

Current aviation weather report (METAR) for Big Sandy Regional Airport

Retrieved 2019/12/14 12:35 UTC (5 minutes ago):

KSJS 141235Z AUTO 28005KT 2 1/2SM DZ OVC003 06/06 A2958 RMK AO2 T00570057

Closest aviation forecast (TAF) to Big Sandy Regional Airport

Closest forecast is Julian Carroll Airport, 33.7 nm (62.4 km) WSW. Retrieved 2019/12/14 12:42 UTC (0 seconds ago):

TAF KJKL 141139Z 1412/1512 30005KT 3SM BR OVC003 FM141400 29006KT 5SM -RA BR OVC005 FM141700 28008KT P6SM VCSH OVC007 FM150100 26007KT P6SM BKN015